sensor_id;sensor_type;location;lat;lon;timestamp;P1;durP1;ratioP1;P2;durP2;ratioP2
80623;SDS011;70269;44.768;9.600;2024-03-02T00:01:04;15.88;;;7.95;;
80623;SDS011;70269;44.768;9.600;2024-03-02T00:03:30;17.48;;;9.90;;
80623;SDS011;70269;44.768;9.600;2024-03-02T00:05:55;17.65;;;8.82;;
80623;SDS011;70269;44.768;9.600;2024-03-02T00:08:25;19.73;;;10.05;;
80623;SDS011;70269;44.768;9.600;2024-03-02T00:10:51;22.13;;;10.18;;
80623;SDS011;70269;44.768;9.600;2024-03-02T00:13:19;17.02;;;8.63;;
80623;SDS011;70269;44.768;9.600;2024-03-02T00:15:48;15.55;;;8.52;;
80623;SDS011;70269;44.768;9.600;2024-03-02T00:18:20;13.20;;;7.22;;
80623;SDS011;70269;44.768;9.600;2024-03-02T00:20:52;14.50;;;7.50;;
80623;SDS011;70269;44.768;9.600;2024-03-02T00:23:19;14.43;;;8.68;;
80623;SDS011;70269;44.768;9.600;2024-03-02T00:25:48;18.25;;;8.50;;
80623;SDS011;70269;44.768;9.600;2024-03-02T00:28:22;13.68;;;7.32;;
80623;SDS011;70269;44.768;9.600;2024-03-02T00:30:58;13.38;;;6.82;;
80623;SDS011;70269;44.768;9.600;2024-03-02T00:33:39;14.13;;;7.90;;
80623;SDS011;70269;44.768;9.600;2024-03-02T00:36:07;13.43;;;7.47;;
80623;SDS011;70269;44.768;9.600;2024-03-02T00:38:34;14.27;;;7.72;;
80623;SDS011;70269;44.768;9.600;2024-03-02T00:41:06;14.30;;;7.72;;
80623;SDS011;70269;44.768;9.600;2024-03-02T00:46:19;13.80;;;7.47;;
80623;SDS011;70269;44.768;9.600;2024-03-02T00:49:04;14.73;;;7.80;;
80623;SDS011;70269;44.768;9.600;2024-03-02T00:51:32;16.27;;;7.78;;
80623;SDS011;70269;44.768;9.600;2024-03-02T00:56:26;13.43;;;6.70;;
80623;SDS011;70269;44.768;9.600;2024-03-02T00:58:52;13.98;;;7.18;;
80623;SDS011;70269;44.768;9.600;2024-03-02T01:01:18;17.35;;;7.53;;
80623;SDS011;70269;44.768;9.600;2024-03-02T01:03:45;14.57;;;8.10;;
80623;SDS011;70269;44.768;9.600;2024-03-02T01:06:11;15.95;;;8.27;;
80623;SDS011;70269;44.768;9.600;2024-03-02T01:08:37;12.77;;;7.50;;
80623;SDS011;70269;44.768;9.600;2024-03-02T01:11:03;19.20;;;8.98;;
80623;SDS011;70269;44.768;9.600;2024-03-02T01:13:30;15.32;;;7.93;;
80623;SDS011;70269;44.768;9.600;2024-03-02T01:15:56;15.52;;;7.53;;
80623;SDS011;70269;44.768;9.600;2024-03-02T01:18:22;17.48;;;8.40;;
80623;SDS011;70269;44.768;9.600;2024-03-02T01:20:49;14.80;;;8.25;;
80623;SDS011;70269;44.768;9.600;2024-03-02T01:23:17;14.23;;;7.00;;
80623;SDS011;70269;44.768;9.600;2024-03-02T01:25:45;13.95;;;6.88;;
80623;SDS011;70269;44.768;9.600;2024-03-02T01:28:11;11.68;;;6.63;;
80623;SDS011;70269;44.768;9.600;2024-03-02T01:30:37;12.13;;;6.35;;
80623;SDS011;70269;44.768;9.600;2024-03-02T01:33:03;14.25;;;7.05;;
80623;SDS011;70269;44.768;9.600;2024-03-02T01:35:30;11.70;;;6.35;;
80623;SDS011;70269;44.768;9.600;2024-03-02T01:37:56;14.80;;;6.80;;
80623;SDS011;70269;44.768;9.600;2024-03-02T01:40:22;20.25;;;7.15;;
80623;SDS011;70269;44.768;9.600;2024-03-02T01:42:52;17.45;;;7.28;;
80623;SDS011;70269;44.768;9.600;2024-03-02T01:45:19;14.65;;;6.30;;
80623;SDS011;70269;44.768;9.600;2024-03-02T01:47:44;13.07;;;6.97;;
80623;SDS011;70269;44.768;9.600;2024-03-02T01:50:13;13.27;;;6.65;;
80623;SDS011;70269;44.768;9.600;2024-03-02T01:52:39;11.55;;;6.13;;
80623;SDS011;70269;44.768;9.600;2024-03-02T01:55:05;14.18;;;7.03;;
80623;SDS011;70269;44.768;9.600;2024-03-02T01:57:32;13.55;;;7.45;;
80623;SDS011;70269;44.768;9.600;2024-03-02T01:59:59;16.88;;;7.95;;
80623;SDS011;70269;44.768;9.600;2024-03-02T02:02:25;13.18;;;7.32;;
80623;SDS011;70269;44.768;9.600;2024-03-02T02:04:51;15.95;;;7.95;;
80623;SDS011;70269;44.768;9.600;2024-03-02T02:07:16;13.02;;;7.07;;
80623;SDS011;70269;44.768;9.600;2024-03-02T02:09:42;14.15;;;7.38;;
80623;SDS011;70269;44.768;9.600;2024-03-02T02:12:09;14.02;;;7.90;;
80623;SDS011;70269;44.768;9.600;2024-03-02T02:14:35;15.02;;;7.35;;
80623;SDS011;70269;44.768;9.600;2024-03-02T02:17:01;12.13;;;7.03;;
80623;SDS011;70269;44.768;9.600;2024-03-02T02:19:27;12.40;;;6.95;;
80623;SDS011;70269;44.768;9.600;2024-03-02T02:21:53;11.13;;;6.18;;
80623;SDS011;70269;44.768;9.600;2024-03-02T02:24:19;11.70;;;6.50;;
80623;SDS011;70269;44.768;9.600;2024-03-02T02:26:45;13.40;;;6.68;;
80623;SDS011;70269;44.768;9.600;2024-03-02T02:29:11;11.57;;;6.18;;
80623;SDS011;70269;44.768;9.600;2024-03-02T02:31:40;12.30;;;7.25;;
80623;SDS011;70269;44.768;9.600;2024-03-02T02:34:07;9.77;;;6.50;;
80623;SDS011;70269;44.768;9.600;2024-03-02T02:36:33;8.52;;;5.30;;
80623;SDS011;70269;44.768;9.600;2024-03-02T02:39:05;9.32;;;5.10;;
80623;SDS011;70269;44.768;9.600;2024-03-02T02:41:33;8.95;;;4.93;;
80623;SDS011;70269;44.768;9.600;2024-03-02T02:43:59;8.18;;;4.47;;
80623;SDS011;70269;44.768;9.600;2024-03-02T02:46:24;9.80;;;5.40;;
80623;SDS011;70269;44.768;9.600;2024-03-02T02:48:50;8.82;;;4.93;;
80623;SDS011;70269;44.768;9.600;2024-03-02T02:51:18;9.75;;;5.43;;
80623;SDS011;70269;44.768;9.600;2024-03-02T02:53:43;10.48;;;5.38;;
80623;SDS011;70269;44.768;9.600;2024-03-02T02:56:09;10.02;;;5.20;;
80623;SDS011;70269;44.768;9.600;2024-03-02T02:58:34;8.85;;;4.90;;
80623;SDS011;70269;44.768;9.600;2024-03-02T03:01:00;8.18;;;4.45;;
80623;SDS011;70269;44.768;9.600;2024-03-02T03:03:26;9.63;;;5.00;;
80623;SDS011;70269;44.768;9.600;2024-03-02T03:05:52;9.23;;;5.18;;
80623;SDS011;70269;44.768;9.600;2024-03-02T03:08:18;8.73;;;5.20;;
80623;SDS011;70269;44.768;9.600;2024-03-02T03:10:43;10.35;;;4.75;;
80623;SDS011;70269;44.768;9.600;2024-03-02T03:13:09;10.20;;;5.30;;
80623;SDS011;70269;44.768;9.600;2024-03-02T03:15:35;8.95;;;4.68;;
80623;SDS011;70269;44.768;9.600;2024-03-02T03:20:30;8.18;;;4.15;;
80623;SDS011;70269;44.768;9.600;2024-03-02T03:22:59;8.88;;;4.72;;
80623;SDS011;70269;44.768;9.600;2024-03-02T03:25:25;8.30;;;3.88;;
80623;SDS011;70269;44.768;9.600;2024-03-02T03:27:51;7.97;;;3.97;;
80623;SDS011;70269;44.768;9.600;2024-03-02T03:30:19;6.45;;;2.55;;
80623;SDS011;70269;44.768;9.600;2024-03-02T03:32:45;5.22;;;2.50;;
80623;SDS011;70269;44.768;9.600;2024-03-02T03:35:11;3.92;;;1.77;;
80623;SDS011;70269;44.768;9.600;2024-03-02T03:37:38;4.45;;;1.85;;
80623;SDS011;70269;44.768;9.600;2024-03-02T03:40:03;2.50;;;1.20;;
80623;SDS011;70269;44.768;9.600;2024-03-02T03:42:38;3.05;;;1.30;;
80623;SDS011;70269;44.768;9.600;2024-03-02T03:45:04;2.92;;;0.75;;
80623;SDS011;70269;44.768;9.600;2024-03-02T03:47:31;4.32;;;0.95;;
80623;SDS011;70269;44.768;9.600;2024-03-02T03:49:57;3.17;;;0.95;;
80623;SDS011;70269;44.768;9.600;2024-03-02T03:52:23;2.22;;;0.70;;
80623;SDS011;70269;44.768;9.600;2024-03-02T03:54:49;3.10;;;0.60;;
80623;SDS011;70269;44.768;9.600;2024-03-02T03:57:15;2.13;;;0.77;;
80623;SDS011;70269;44.768;9.600;2024-03-02T03:59:41;1.13;;;0.50;;
80623;SDS011;70269;44.768;9.600;2024-03-02T04:02:07;2.47;;;0.77;;
80623;SDS011;70269;44.768;9.600;2024-03-02T04:04:34;1.42;;;0.60;;
80623;SDS011;70269;44.768;9.600;2024-03-02T04:07:00;1.92;;;0.70;;
80623;SDS011;70269;44.768;9.600;2024-03-02T04:09:25;1.88;;;0.80;;
80623;SDS011;70269;44.768;9.600;2024-03-02T04:11:51;2.50;;;0.40;;
80623;SDS011;70269;44.768;9.600;2024-03-02T04:14:17;2.88;;;0.95;;
80623;SDS011;70269;44.768;9.600;2024-03-02T04:16:42;1.58;;;0.60;;
80623;SDS011;70269;44.768;9.600;2024-03-02T04:19:08;2.40;;;0.70;;
80623;SDS011;70269;44.768;9.600;2024-03-02T04:21:34;4.03;;;0.70;;
80623;SDS011;70269;44.768;9.600;2024-03-02T04:23:59;4.47;;;0.90;;
80623;SDS011;70269;44.768;9.600;2024-03-02T04:26:25;2.10;;;0.90;;
80623;SDS011;70269;44.768;9.600;2024-03-02T04:28:52;1.15;;;0.47;;
80623;SDS011;70269;44.768;9.600;2024-03-02T04:31:18;2.03;;;0.80;;
80623;SDS011;70269;44.768;9.600;2024-03-02T04:33:43;1.95;;;0.70;;
80623;SDS011;70269;44.768;9.600;2024-03-02T04:36:09;1.83;;;0.55;;
80623;SDS011;70269;44.768;9.600;2024-03-02T04:38:35;3.58;;;0.80;;
80623;SDS011;70269;44.768;9.600;2024-03-02T04:41:01;1.90;;;0.57;;
80623;SDS011;70269;44.768;9.600;2024-03-02T04:43:26;2.63;;;0.70;;
80623;SDS011;70269;44.768;9.600;2024-03-02T04:45:52;1.85;;;0.55;;
80623;SDS011;70269;44.768;9.600;2024-03-02T04:48:18;2.47;;;0.90;;
80623;SDS011;70269;44.768;9.600;2024-03-02T04:50:44;1.95;;;0.77;;
80623;SDS011;70269;44.768;9.600;2024-03-02T04:53:10;2.45;;;0.63;;
80623;SDS011;70269;44.768;9.600;2024-03-02T04:55:36;1.58;;;0.90;;
80623;SDS011;70269;44.768;9.600;2024-03-02T04:58:04;1.63;;;0.60;;
80623;SDS011;70269;44.768;9.600;2024-03-02T05:00:30;2.08;;;0.68;;
80623;SDS011;70269;44.768;9.600;2024-03-02T05:02:56;4.63;;;0.80;;
80623;SDS011;70269;44.768;9.600;2024-03-02T05:05:21;3.65;;;0.93;;
80623;SDS011;70269;44.768;9.600;2024-03-02T05:07:47;3.95;;;0.90;;
80623;SDS011;70269;44.768;9.600;2024-03-02T05:10:13;1.98;;;0.45;;
80623;SDS011;70269;44.768;9.600;2024-03-02T05:12:39;1.83;;;0.57;;
80623;SDS011;70269;44.768;9.600;2024-03-02T05:15:08;1.20;;;0.40;;
80623;SDS011;70269;44.768;9.600;2024-03-02T05:17:39;3.33;;;0.90;;
80623;SDS011;70269;44.768;9.600;2024-03-02T05:20:06;2.25;;;0.65;;
80623;SDS011;70269;44.768;9.600;2024-03-02T05:22:33;1.45;;;0.60;;
80623;SDS011;70269;44.768;9.600;2024-03-02T05:25:03;1.30;;;0.47;;
80623;SDS011;70269;44.768;9.600;2024-03-02T05:27:29;1.48;;;0.52;;
80623;SDS011;70269;44.768;9.600;2024-03-02T05:29:55;2.42;;;0.88;;
80623;SDS011;70269;44.768;9.600;2024-03-02T05:32:21;2.20;;;0.77;;
80623;SDS011;70269;44.768;9.600;2024-03-02T05:34:47;1.48;;;0.60;;
80623;SDS011;70269;44.768;9.600;2024-03-02T05:37:12;2.45;;;0.93;;
80623;SDS011;70269;44.768;9.600;2024-03-02T05:39:38;2.90;;;1.00;;
80623;SDS011;70269;44.768;9.600;2024-03-02T05:42:03;1.73;;;0.60;;
80623;SDS011;70269;44.768;9.600;2024-03-02T05:44:29;1.92;;;0.60;;
80623;SDS011;70269;44.768;9.600;2024-03-02T05:46:55;1.92;;;0.60;;
80623;SDS011;70269;44.768;9.600;2024-03-02T05:49:21;2.47;;;0.90;;
80623;SDS011;70269;44.768;9.600;2024-03-02T05:51:47;4.32;;;1.45;;
80623;SDS011;70269;44.768;9.600;2024-03-02T05:54:12;12.57;;;6.22;;
80623;SDS011;70269;44.768;9.600;2024-03-02T05:56:38;7.10;;;2.58;;
80623;SDS011;70269;44.768;9.600;2024-03-02T05:59:04;4.70;;;1.70;;
80623;SDS011;70269;44.768;9.600;2024-03-02T06:01:47;2.60;;;0.88;;
80623;SDS011;70269;44.768;9.600;2024-03-02T06:04:15;1.80;;;0.65;;
80623;SDS011;70269;44.768;9.600;2024-03-02T06:06:41;2.28;;;0.88;;
80623;SDS011;70269;44.768;9.600;2024-03-02T06:09:07;2.47;;;1.00;;
80623;SDS011;70269;44.768;9.600;2024-03-02T06:11:33;2.85;;;1.00;;
80623;SDS011;70269;44.768;9.600;2024-03-02T06:13:59;2.50;;;1.00;;
80623;SDS011;70269;44.768;9.600;2024-03-02T06:16:25;2.50;;;0.70;;
80623;SDS011;70269;44.768;9.600;2024-03-02T06:18:50;1.70;;;0.63;;
80623;SDS011;70269;44.768;9.600;2024-03-02T06:21:16;2.70;;;0.57;;
80623;SDS011;70269;44.768;9.600;2024-03-02T06:23:43;1.83;;;0.80;;
80623;SDS011;70269;44.768;9.600;2024-03-02T06:26:09;2.95;;;0.65;;
80623;SDS011;70269;44.768;9.600;2024-03-02T06:28:35;3.35;;;1.30;;
80623;SDS011;70269;44.768;9.600;2024-03-02T06:31:01;4.07;;;1.20;;
80623;SDS011;70269;44.768;9.600;2024-03-02T06:33:27;4.05;;;1.55;;
80623;SDS011;70269;44.768;9.600;2024-03-02T06:35:53;1.73;;;0.70;;
80623;SDS011;70269;44.768;9.600;2024-03-02T06:38:19;2.92;;;0.70;;
80623;SDS011;70269;44.768;9.600;2024-03-02T06:40:45;1.48;;;0.80;;
80623;SDS011;70269;44.768;9.600;2024-03-02T06:43:10;1.73;;;0.75;;
80623;SDS011;70269;44.768;9.600;2024-03-02T06:45:36;1.92;;;0.85;;
80623;SDS011;70269;44.768;9.600;2024-03-02T06:48:02;2.13;;;0.80;;
80623;SDS011;70269;44.768;9.600;2024-03-02T06:50:28;1.02;;;0.60;;
80623;SDS011;70269;44.768;9.600;2024-03-02T06:52:53;0.90;;;0.50;;
80623;SDS011;70269;44.768;9.600;2024-03-02T06:55:21;2.25;;;0.68;;
80623;SDS011;70269;44.768;9.600;2024-03-02T06:57:47;1.70;;;0.60;;
80623;SDS011;70269;44.768;9.600;2024-03-02T07:00:13;1.92;;;0.85;;
80623;SDS011;70269;44.768;9.600;2024-03-02T07:02:39;2.53;;;0.95;;
80623;SDS011;70269;44.768;9.600;2024-03-02T07:05:06;3.13;;;0.88;;
80623;SDS011;70269;44.768;9.600;2024-03-02T07:07:33;2.30;;;0.80;;
80623;SDS011;70269;44.768;9.600;2024-03-02T07:10:00;2.05;;;0.55;;
80623;SDS011;70269;44.768;9.600;2024-03-02T07:12:26;5.03;;;0.80;;
80623;SDS011;70269;44.768;9.600;2024-03-02T07:14:52;1.65;;;0.77;;
80623;SDS011;70269;44.768;9.600;2024-03-02T07:17:30;1.20;;;0.68;;
80623;SDS011;70269;44.768;9.600;2024-03-02T07:19:56;3.22;;;0.47;;
80623;SDS011;70269;44.768;9.600;2024-03-02T07:22:22;5.22;;;1.05;;
80623;SDS011;70269;44.768;9.600;2024-03-02T07:24:48;1.38;;;0.50;;
80623;SDS011;70269;44.768;9.600;2024-03-02T07:27:15;1.35;;;0.68;;
80623;SDS011;70269;44.768;9.600;2024-03-02T07:29:41;3.63;;;0.93;;
80623;SDS011;70269;44.768;9.600;2024-03-02T07:32:08;2.83;;;0.70;;
80623;SDS011;70269;44.768;9.600;2024-03-02T07:34:34;1.35;;;0.70;;
80623;SDS011;70269;44.768;9.600;2024-03-02T07:37:00;1.77;;;0.60;;
80623;SDS011;70269;44.768;9.600;2024-03-02T07:39:26;1.38;;;0.57;;
80623;SDS011;70269;44.768;9.600;2024-03-02T07:41:52;1.40;;;0.57;;
80623;SDS011;70269;44.768;9.600;2024-03-02T07:44:17;3.88;;;1.55;;
80623;SDS011;70269;44.768;9.600;2024-03-02T07:46:47;6.18;;;3.08;;
80623;SDS011;70269;44.768;9.600;2024-03-02T07:49:16;3.53;;;1.55;;
80623;SDS011;70269;44.768;9.600;2024-03-02T07:51:43;3.45;;;1.30;;
80623;SDS011;70269;44.768;9.600;2024-03-02T07:54:09;1.35;;;0.55;;
80623;SDS011;70269;44.768;9.600;2024-03-02T07:56:35;1.88;;;0.88;;
80623;SDS011;70269;44.768;9.600;2024-03-02T07:59:02;2.03;;;0.70;;
80623;SDS011;70269;44.768;9.600;2024-03-02T08:01:28;2.03;;;0.73;;
80623;SDS011;70269;44.768;9.600;2024-03-02T08:03:57;2.33;;;0.77;;
80623;SDS011;70269;44.768;9.600;2024-03-02T08:06:27;2.60;;;1.00;;
80623;SDS011;70269;44.768;9.600;2024-03-02T08:08:59;2.72;;;0.90;;
80623;SDS011;70269;44.768;9.600;2024-03-02T08:11:26;3.72;;;1.08;;
80623;SDS011;70269;44.768;9.600;2024-03-02T08:13:52;2.90;;;1.25;;
80623;SDS011;70269;44.768;9.600;2024-03-02T08:16:20;1.50;;;0.68;;
80623;SDS011;70269;44.768;9.600;2024-03-02T08:18:48;2.42;;;0.63;;
80623;SDS011;70269;44.768;9.600;2024-03-02T08:21:14;1.17;;;0.50;;
80623;SDS011;70269;44.768;9.600;2024-03-02T08:23:40;2.60;;;0.50;;
80623;SDS011;70269;44.768;9.600;2024-03-02T08:26:07;1.52;;;0.68;;
80623;SDS011;70269;44.768;9.600;2024-03-02T08:28:34;0.77;;;0.40;;
80623;SDS011;70269;44.768;9.600;2024-03-02T08:30:59;2.05;;;0.68;;
80623;SDS011;70269;44.768;9.600;2024-03-02T08:33:25;1.90;;;0.73;;
80623;SDS011;70269;44.768;9.600;2024-03-02T08:35:50;1.98;;;0.65;;
80623;SDS011;70269;44.768;9.600;2024-03-02T08:38:17;3.75;;;1.40;;
80623;SDS011;70269;44.768;9.600;2024-03-02T08:40:42;4.63;;;1.58;;
80623;SDS011;70269;44.768;9.600;2024-03-02T08:43:09;2.60;;;0.85;;
80623;SDS011;70269;44.768;9.600;2024-03-02T08:45:35;3.25;;;1.10;;
80623;SDS011;70269;44.768;9.600;2024-03-02T08:48:01;4.00;;;1.45;;
80623;SDS011;70269;44.768;9.600;2024-03-02T08:50:26;2.88;;;1.48;;
80623;SDS011;70269;44.768;9.600;2024-03-02T08:52:52;3.13;;;0.80;;
80623;SDS011;70269;44.768;9.600;2024-03-02T08:55:18;2.97;;;1.15;;
80623;SDS011;70269;44.768;9.600;2024-03-02T08:57:43;3.75;;;1.40;;
80623;SDS011;70269;44.768;9.600;2024-03-02T09:00:09;3.35;;;1.35;;
80623;SDS011;70269;44.768;9.600;2024-03-02T09:02:35;3.42;;;1.30;;
80623;SDS011;70269;44.768;9.600;2024-03-02T09:05:01;3.70;;;1.42;;
80623;SDS011;70269;44.768;9.600;2024-03-02T09:07:27;2.92;;;1.13;;
80623;SDS011;70269;44.768;9.600;2024-03-02T09:09:54;2.95;;;1.60;;
80623;SDS011;70269;44.768;9.600;2024-03-02T09:12:19;2.75;;;1.20;;
80623;SDS011;70269;44.768;9.600;2024-03-02T09:14:45;1.75;;;0.70;;
80623;SDS011;70269;44.768;9.600;2024-03-02T09:17:12;1.05;;;0.50;;
80623;SDS011;70269;44.768;9.600;2024-03-02T09:19:38;1.98;;;0.75;;
80623;SDS011;70269;44.768;9.600;2024-03-02T09:22:04;3.00;;;1.63;;
80623;SDS011;70269;44.768;9.600;2024-03-02T09:24:31;2.72;;;1.30;;
80623;SDS011;70269;44.768;9.600;2024-03-02T09:26:58;2.90;;;1.13;;
80623;SDS011;70269;44.768;9.600;2024-03-02T09:29:24;2.25;;;0.80;;
80623;SDS011;70269;44.768;9.600;2024-03-02T09:31:50;3.55;;;1.13;;
80623;SDS011;70269;44.768;9.600;2024-03-02T09:34:16;2.95;;;1.27;;
80623;SDS011;70269;44.768;9.600;2024-03-02T09:36:42;1.73;;;0.82;;
80623;SDS011;70269;44.768;9.600;2024-03-02T09:39:08;2.00;;;0.80;;
80623;SDS011;70269;44.768;9.600;2024-03-02T09:41:37;1.77;;;0.60;;
80623;SDS011;70269;44.768;9.600;2024-03-02T09:44:04;1.45;;;0.70;;
80623;SDS011;70269;44.768;9.600;2024-03-02T09:46:30;1.60;;;0.70;;
80623;SDS011;70269;44.768;9.600;2024-03-02T09:48:56;1.88;;;0.82;;
80623;SDS011;70269;44.768;9.600;2024-03-02T09:51:22;1.25;;;0.40;;
80623;SDS011;70269;44.768;9.600;2024-03-02T09:53:48;1.70;;;0.70;;
80623;SDS011;70269;44.768;9.600;2024-03-02T09:56:15;0.90;;;0.40;;
80623;SDS011;70269;44.768;9.600;2024-03-02T09:58:41;1.13;;;0.43;;
80623;SDS011;70269;44.768;9.600;2024-03-02T10:01:07;1.85;;;0.40;;
80623;SDS011;70269;44.768;9.600;2024-03-02T10:03:33;1.77;;;0.50;;
80623;SDS011;70269;44.768;9.600;2024-03-02T10:08:47;1.70;;;0.57;;
80623;SDS011;70269;44.768;9.600;2024-03-02T10:14:06;2.47;;;0.60;;
80623;SDS011;70269;44.768;9.600;2024-03-02T10:16:34;0.82;;;0.32;;
80623;SDS011;70269;44.768;9.600;2024-03-02T10:21:46;0.85;;;0.40;;
80623;SDS011;70269;44.768;9.600;2024-03-02T10:24:15;1.10;;;0.47;;
80623;SDS011;70269;44.768;9.600;2024-03-02T10:26:41;1.25;;;0.47;;
80623;SDS011;70269;44.768;9.600;2024-03-02T10:29:10;2.17;;;0.40;;
80623;SDS011;70269;44.768;9.600;2024-03-02T10:31:37;1.10;;;0.52;;
80623;SDS011;70269;44.768;9.600;2024-03-02T10:34:03;0.80;;;0.38;;
80623;SDS011;70269;44.768;9.600;2024-03-02T10:36:29;1.27;;;0.50;;
80623;SDS011;70269;44.768;9.600;2024-03-02T10:38:58;1.27;;;0.60;;
80623;SDS011;70269;44.768;9.600;2024-03-02T10:41:26;2.08;;;0.75;;
80623;SDS011;70269;44.768;9.600;2024-03-02T10:43:53;0.90;;;0.45;;
80623;SDS011;70269;44.768;9.600;2024-03-02T10:46:28;0.73;;;0.30;;
80623;SDS011;70269;44.768;9.600;2024-03-02T10:48:55;1.77;;;0.68;;
80623;SDS011;70269;44.768;9.600;2024-03-02T10:51:27;1.85;;;0.82;;
80623;SDS011;70269;44.768;9.600;2024-03-02T10:53:57;2.88;;;1.38;;
80623;SDS011;70269;44.768;9.600;2024-03-02T10:59:01;2.47;;;1.30;;
80623;SDS011;70269;44.768;9.600;2024-03-02T11:01:48;3.63;;;1.25;;
80623;SDS011;70269;44.768;9.600;2024-03-02T11:04:18;36.70;;;17.33;;
80623;SDS011;70269;44.768;9.600;2024-03-02T11:06:46;2.38;;;1.02;;
80623;SDS011;70269;44.768;9.600;2024-03-02T11:09:14;3.17;;;1.17;;
80623;SDS011;70269;44.768;9.600;2024-03-02T11:11:42;3.40;;;1.30;;
80623;SDS011;70269;44.768;9.600;2024-03-02T11:14:16;2.38;;;1.10;;
80623;SDS011;70269;44.768;9.600;2024-03-02T11:16:45;2.92;;;1.25;;
80623;SDS011;70269;44.768;9.600;2024-03-02T11:19:12;3.47;;;1.58;;
80623;SDS011;70269;44.768;9.600;2024-03-02T11:21:39;1.90;;;0.98;;
80623;SDS011;70269;44.768;9.600;2024-03-02T11:27:03;3.85;;;1.45;;
80623;SDS011;70269;44.768;9.600;2024-03-02T11:32:03;4.10;;;1.90;;
80623;SDS011;70269;44.768;9.600;2024-03-02T11:34:30;3.08;;;1.90;;
80623;SDS011;70269;44.768;9.600;2024-03-02T11:37:00;3.65;;;1.98;;
80623;SDS011;70269;44.768;9.600;2024-03-02T11:39:27;2.53;;;1.10;;
80623;SDS011;70269;44.768;9.600;2024-03-02T11:41:54;2.83;;;1.35;;
80623;SDS011;70269;44.768;9.600;2024-03-02T11:44:21;3.85;;;1.38;;
80623;SDS011;70269;44.768;9.600;2024-03-02T11:47:00;3.10;;;1.73;;
80623;SDS011;70269;44.768;9.600;2024-03-02T11:52:09;3.85;;;1.80;;
80623;SDS011;70269;44.768;9.600;2024-03-02T11:54:36;2.92;;;1.48;;
80623;SDS011;70269;44.768;9.600;2024-03-02T11:59:36;2.28;;;1.15;;
80623;SDS011;70269;44.768;9.600;2024-03-02T12:02:02;3.92;;;1.98;;
80623;SDS011;70269;44.768;9.600;2024-03-02T12:04:28;2.55;;;1.33;;
80623;SDS011;70269;44.768;9.600;2024-03-02T12:06:55;3.00;;;1.67;;
80623;SDS011;70269;44.768;9.600;2024-03-02T12:09:27;5.90;;;3.20;;
80623;SDS011;70269;44.768;9.600;2024-03-02T12:14:30;4.30;;;1.80;;
80623;SDS011;70269;44.768;9.600;2024-03-02T12:16:56;3.65;;;2.08;;
80623;SDS011;70269;44.768;9.600;2024-03-02T12:19:24;4.28;;;2.65;;
80623;SDS011;70269;44.768;9.600;2024-03-02T12:24:21;7.72;;;3.40;;
80623;SDS011;70269;44.768;9.600;2024-03-02T12:26:48;5.28;;;2.80;;
80623;SDS011;70269;44.768;9.600;2024-03-02T12:29:15;6.00;;;2.80;;
80623;SDS011;70269;44.768;9.600;2024-03-02T12:31:44;5.75;;;3.63;;
80623;SDS011;70269;44.768;9.600;2024-03-02T12:34:13;4.63;;;2.85;;
80623;SDS011;70269;44.768;9.600;2024-03-02T12:36:40;10.68;;;4.15;;
80623;SDS011;70269;44.768;9.600;2024-03-02T12:39:10;3.75;;;1.98;;
80623;SDS011;70269;44.768;9.600;2024-03-02T12:41:36;6.10;;;3.00;;
80623;SDS011;70269;44.768;9.600;2024-03-02T12:44:03;9.43;;;3.85;;
80623;SDS011;70269;44.768;9.600;2024-03-02T12:46:29;4.55;;;2.50;;
80623;SDS011;70269;44.768;9.600;2024-03-02T12:48:56;6.25;;;3.40;;
80623;SDS011;70269;44.768;9.600;2024-03-02T12:51:22;6.05;;;3.22;;
80623;SDS011;70269;44.768;9.600;2024-03-02T12:53:57;6.20;;;3.38;;
80623;SDS011;70269;44.768;9.600;2024-03-02T12:56:24;4.07;;;2.05;;
80623;SDS011;70269;44.768;9.600;2024-03-02T12:58:53;5.75;;;2.47;;
80623;SDS011;70269;44.768;9.600;2024-03-02T13:01:20;4.72;;;2.60;;
80623;SDS011;70269;44.768;9.600;2024-03-02T13:03:47;4.70;;;2.63;;
80623;SDS011;70269;44.768;9.600;2024-03-02T13:06:16;4.70;;;2.38;;
80623;SDS011;70269;44.768;9.600;2024-03-02T13:08:42;4.38;;;2.53;;
80623;SDS011;70269;44.768;9.600;2024-03-02T13:11:08;5.82;;;3.35;;
80623;SDS011;70269;44.768;9.600;2024-03-02T13:13:34;5.50;;;2.78;;
80623;SDS011;70269;44.768;9.600;2024-03-02T13:16:00;3.92;;;2.20;;
80623;SDS011;70269;44.768;9.600;2024-03-02T13:18:25;5.82;;;2.55;;
80623;SDS011;70269;44.768;9.600;2024-03-02T13:20:51;4.97;;;2.45;;
80623;SDS011;70269;44.768;9.600;2024-03-02T13:23:18;4.13;;;1.83;;
80623;SDS011;70269;44.768;9.600;2024-03-02T13:25:43;4.53;;;2.13;;
80623;SDS011;70269;44.768;9.600;2024-03-02T13:28:09;6.40;;;3.42;;
80623;SDS011;70269;44.768;9.600;2024-03-02T13:30:34;5.97;;;3.20;;
80623;SDS011;70269;44.768;9.600;2024-03-02T13:33:00;5.05;;;2.28;;
80623;SDS011;70269;44.768;9.600;2024-03-02T13:35:26;4.30;;;2.00;;
80623;SDS011;70269;44.768;9.600;2024-03-02T13:37:51;4.95;;;2.83;;
80623;SDS011;70269;44.768;9.600;2024-03-02T13:40:17;4.07;;;1.92;;
80623;SDS011;70269;44.768;9.600;2024-03-02T13:42:48;3.65;;;1.90;;
80623;SDS011;70269;44.768;9.600;2024-03-02T13:45:16;5.07;;;2.40;;
80623;SDS011;70269;44.768;9.600;2024-03-02T13:47:43;4.53;;;2.50;;
80623;SDS011;70269;44.768;9.600;2024-03-02T13:50:09;4.63;;;2.42;;
80623;SDS011;70269;44.768;9.600;2024-03-02T13:52:35;7.22;;;2.88;;
80623;SDS011;70269;44.768;9.600;2024-03-02T13:55:01;5.22;;;2.03;;
80623;SDS011;70269;44.768;9.600;2024-03-02T13:57:27;4.25;;;1.83;;
80623;SDS011;70269;44.768;9.600;2024-03-02T13:59:53;3.53;;;1.90;;
80623;SDS011;70269;44.768;9.600;2024-03-02T14:02:19;3.78;;;1.95;;
80623;SDS011;70269;44.768;9.600;2024-03-02T14:04:45;3.55;;;1.75;;
80623;SDS011;70269;44.768;9.600;2024-03-02T14:07:13;3.80;;;1.98;;
80623;SDS011;70269;44.768;9.600;2024-03-02T14:09:39;3.60;;;1.75;;
80623;SDS011;70269;44.768;9.600;2024-03-02T14:12:05;4.85;;;1.73;;
80623;SDS011;70269;44.768;9.600;2024-03-02T14:14:31;4.70;;;2.30;;
80623;SDS011;70269;44.768;9.600;2024-03-02T14:16:57;5.07;;;2.05;;
80623;SDS011;70269;44.768;9.600;2024-03-02T14:19:29;4.22;;;2.08;;
80623;SDS011;70269;44.768;9.600;2024-03-02T14:21:54;6.65;;;3.63;;
80623;SDS011;70269;44.768;9.600;2024-03-02T14:24:21;3.30;;;1.48;;
80623;SDS011;70269;44.768;9.600;2024-03-02T14:26:51;2.70;;;1.48;;
80623;SDS011;70269;44.768;9.600;2024-03-02T14:29:17;4.78;;;2.58;;
80623;SDS011;70269;44.768;9.600;2024-03-02T14:31:43;3.53;;;1.73;;
80623;SDS011;70269;44.768;9.600;2024-03-02T14:34:09;7.78;;;2.03;;
80623;SDS011;70269;44.768;9.600;2024-03-02T14:36:34;6.43;;;3.25;;
80623;SDS011;70269;44.768;9.600;2024-03-02T14:39:00;4.35;;;2.03;;
80623;SDS011;70269;44.768;9.600;2024-03-02T14:41:26;4.93;;;2.47;;
80623;SDS011;70269;44.768;9.600;2024-03-02T14:43:52;3.75;;;1.88;;
80623;SDS011;70269;44.768;9.600;2024-03-02T14:46:17;3.10;;;1.63;;
80623;SDS011;70269;44.768;9.600;2024-03-02T14:48:43;4.22;;;2.22;;
80623;SDS011;70269;44.768;9.600;2024-03-02T14:51:11;4.22;;;1.85;;
80623;SDS011;70269;44.768;9.600;2024-03-02T14:53:37;3.42;;;1.92;;
80623;SDS011;70269;44.768;9.600;2024-03-02T14:56:03;6.35;;;2.65;;
80623;SDS011;70269;44.768;9.600;2024-03-02T14:58:29;5.70;;;2.45;;
80623;SDS011;70269;44.768;9.600;2024-03-02T15:00:55;8.93;;;3.78;;
80623;SDS011;70269;44.768;9.600;2024-03-02T15:03:21;7.13;;;4.07;;
80623;SDS011;70269;44.768;9.600;2024-03-02T15:05:47;6.13;;;3.05;;
80623;SDS011;70269;44.768;9.600;2024-03-02T15:08:16;5.72;;;2.78;;
80623;SDS011;70269;44.768;9.600;2024-03-02T15:10:42;6.85;;;3.17;;
80623;SDS011;70269;44.768;9.600;2024-03-02T15:13:08;6.07;;;3.08;;
80623;SDS011;70269;44.768;9.600;2024-03-02T15:15:33;4.22;;;2.35;;
80623;SDS011;70269;44.768;9.600;2024-03-02T15:17:59;3.95;;;2.00;;